Post, TX

1:12 AM CDT on October 26, 2014 (GMT -0500)
WT_Meso Post 1S | Change Station
CLOSE
Current Station
Personal Weather Station
Location: Post, TX
Elevation: 2598 ft
Nearby Weather Stations

Elev 2598 ft 33.20 °N, 101.37 °W | Updated 47 minutes ago

Clear
Clear
69 °F
Feels Like 69 °F
N
13
Wind Variable Wind from SSW
Gusts 18.0 mph

Today
High -- | Low -- °F
--% Chance of Precip.
Yesterday
High -- | Low -- °F
Precip. -- in
7:58 AM 6:59 PM
Waxing Crescent, 6% visible
Pressure 29.94 in
Visibility 10.0 miles
Clouds Clear
Dew Point 50 °F
Humidity 51%
Rainfall -999.00 in
Snow Depth Not available.
UV 0 out of 12
Pollen 6.40 out of 12
Air Quality Not available.
Flu Activity Local Activity
METAR KLBB 260553Z 19011KT 10SM CLR 18/08 A3007 RMK AO2 SLP137 T01780083 10256 20172 402940117 58008 $

More Conditions Fewer Conditions

Pressure 29.94 in
Visibility 10.0 miles
Clouds Clear
Dew Point 50 °F
Humidity 51%
Rainfall -999.00 in
Snow Depth Not available.
UV 0 out of 12
Pollen 6.40 out of 12
Air Quality Not available.
Flu Activity Local Activity
METAR KLBB 260553Z 19011KT 10SM CLR 18/08 A3007 RMK AO2 SLP137 T01780083 10256 20172 402940117 58008 $

More Conditions Fewer Conditions

10-Day Weather Forecast

Almanac

Astronomy

Oct. 26, 2014 Rise Set
Actual Time 7:58 AM CDT 6:59 PM CDT
Civil Twilight 7:33 AM CDT 7:25 PM CDT
Nautical Twilight 7:04 AM CDT 7:54 PM CDT
Astronomical Twilight 6:35 AM CDT 8:22 PM CDT
Moon 10:33 AM CDT 9:18 PM CDT
Length of Visible Light 11h 51m
Length of Day
11h 00m
Tomorrow will be 1m 51s shorter.
Waxing Crescent, 6% of the Moon is Illuminated
Today
Waxing Crescent
Oct 30
First Quarter
Nov 6
Full
Nov 14
Last Quarter
Nov 22
New

Today's Extremes

State Highs State Lows

Community

WunderPhotos

Upload Photos

1,765,113 photos uploaded!

Nearby

Snow Depth

Station Depth Elevation
No new snow has been reported.

Earthquake Activity

City Distance Mag. Time & Date
No recent earthquake activity has been reported nearby.
Minimum magnitude displayed is 2.5.

Coastal Water Temperatures

Place Temperature
No Stations Reporting

Nearby Weather Stations